createdAt,value
2022-07-26T00:00:10.740Z,4.82
2022-07-26T00:02:37.405Z,5.20
2022-07-26T00:05:05.797Z,3.90
2022-07-26T00:07:35.974Z,4.07
2022-07-26T00:10:06.081Z,3.63
2022-07-26T00:12:33.617Z,3.05
2022-07-26T00:15:00.392Z,2.60
2022-07-26T00:17:26.949Z,2.40
2022-07-26T00:19:53.485Z,2.03
2022-07-26T00:22:35.301Z,2.20
2022-07-26T00:25:08.019Z,1.98
2022-07-26T00:27:38.067Z,1.83
2022-07-26T00:30:08.929Z,2.00
2022-07-26T00:32:36.699Z,1.85
2022-07-26T00:35:06.506Z,2.22
2022-07-26T00:37:33.670Z,1.83
2022-07-26T00:40:00.277Z,2.00
2022-07-26T00:42:27.017Z,2.00
2022-07-26T00:44:53.520Z,2.10
2022-07-26T00:47:20.035Z,2.20
2022-07-26T00:49:46.678Z,2.30
2022-07-26T00:52:13.264Z,1.80
2022-07-26T00:54:43.851Z,1.77
2022-07-26T00:57:10.465Z,2.22
2022-07-26T00:59:37.016Z,1.90
2022-07-26T01:02:06.397Z,1.90
2022-07-26T01:04:34.195Z,2.13
2022-07-26T01:07:02.207Z,1.90
2022-07-26T01:09:29.530Z,2.13
2022-07-26T01:11:59.320Z,1.83
2022-07-26T01:14:26.303Z,2.22
2022-07-26T01:16:54.117Z,1.60
2022-07-26T01:19:21.544Z,1.92
2022-07-26T01:21:49.619Z,1.70
2022-07-26T01:24:16.196Z,2.05
2022-07-26T01:26:42.841Z,2.10
2022-07-26T01:29:09.711Z,2.00
2022-07-26T01:31:36.454Z,1.77
2022-07-26T01:34:03.463Z,2.00
2022-07-26T01:36:30.055Z,1.70
2022-07-26T01:38:56.642Z,1.70
2022-07-26T01:41:37.795Z,1.92
2022-07-26T01:44:07.951Z,1.58
2022-07-26T01:46:35.560Z,1.77
2022-07-26T01:49:02.585Z,2.05
2022-07-26T01:51:29.480Z,1.58
2022-07-26T01:53:56.468Z,1.90
2022-07-26T01:56:22.987Z,2.05
2022-07-26T01:58:50.136Z,1.83
2022-07-26T02:01:16.742Z,2.13
2022-07-26T02:04:03.210Z,1.88
2022-07-26T02:06:29.727Z,1.80
2022-07-26T02:08:56.238Z,1.92
2022-07-26T02:11:22.754Z,1.83
2022-07-26T02:13:53.075Z,2.30
2022-07-26T02:16:20.058Z,2.00
2022-07-26T02:18:46.612Z,2.58
2022-07-26T02:21:13.141Z,1.90
2022-07-26T02:23:41.771Z,2.10
2022-07-26T02:26:09.310Z,2.00
2022-07-26T02:28:35.880Z,2.17
2022-07-26T02:31:02.522Z,2.00
2022-07-26T02:33:29.107Z,2.33
2022-07-26T02:35:55.660Z,1.90
2022-07-26T02:38:22.501Z,1.70
2022-07-26T02:40:52.636Z,1.90
2022-07-26T02:43:19.882Z,1.70
2022-07-26T02:46:01.130Z,1.63
2022-07-26T02:48:32.280Z,1.63
2022-07-26T02:50:59.263Z,2.30
2022-07-26T02:53:25.785Z,1.95
2022-07-26T02:55:52.308Z,2.22
2022-07-26T02:58:21.403Z,2.30
2022-07-26T03:00:48.014Z,2.42
2022-07-26T03:03:14.585Z,2.00
2022-07-26T03:05:41.535Z,2.13
2022-07-26T03:08:08.519Z,2.17
2022-07-26T03:10:35.015Z,2.00
2022-07-26T03:13:02.014Z,2.33
2022-07-26T03:15:28.616Z,2.10
2022-07-26T03:17:55.377Z,2.10
2022-07-26T03:20:22.128Z,2.05
2022-07-26T03:22:48.663Z,2.47
2022-07-26T03:25:15.415Z,2.28
2022-07-26T03:27:41.946Z,2.42
2022-07-26T03:30:10.346Z,2.58
2022-07-26T03:32:36.875Z,2.00
2022-07-26T03:35:04.399Z,2.30
2022-07-26T03:37:46.228Z,2.00
2022-07-26T03:40:17.684Z,2.22
2022-07-26T03:42:48.054Z,2.03
2022-07-26T03:45:16.014Z,2.47
2022-07-26T03:47:43.527Z,2.00
2022-07-26T03:50:13.457Z,2.00
2022-07-26T03:52:40.493Z,1.90
2022-07-26T03:55:26.433Z,1.85
2022-07-26T03:57:53.551Z,1.80
2022-07-26T04:00:20.290Z,2.90
2022-07-26T04:02:46.894Z,2.42
2022-07-26T04:05:13.485Z,2.47
2022-07-26T04:07:52.714Z,2.38
2022-07-26T04:10:21.797Z,2.22
2022-07-26T04:12:51.689Z,2.60
2022-07-26T04:15:19.124Z,2.25
2022-07-26T04:17:48.079Z,2.83
2022-07-26T04:20:15.466Z,2.90
2022-07-26T04:22:42.243Z,2.90
2022-07-26T04:25:09.814Z,3.13
2022-07-26T04:27:37.419Z,2.90
2022-07-26T04:30:09.647Z,3.53
2022-07-26T04:32:39.242Z,3.33
2022-07-26T04:35:06.333Z,4.00
2022-07-26T04:37:42.748Z,3.95
2022-07-26T04:42:39.598Z,3.60
2022-07-26T04:45:08.608Z,4.57
2022-07-26T04:47:36.219Z,3.95
2022-07-26T04:50:04.560Z,4.15
2022-07-26T04:52:31.083Z,4.05
2022-07-26T04:54:59.169Z,3.53
2022-07-26T04:57:25.711Z,3.67
2022-07-26T05:00:03.659Z,4.03
2022-07-26T05:02:39.084Z,5.25
2022-07-26T05:05:07.235Z,3.67
2022-07-26T05:07:45.756Z,3.65
2022-07-26T05:10:15.731Z,3.33
2022-07-26T05:12:42.667Z,3.20
2022-07-26T05:15:13.911Z,3.58
2022-07-26T05:17:43.196Z,2.65
2022-07-26T05:20:14.283Z,2.60
2022-07-26T05:22:41.557Z,2.45
2022-07-26T05:25:09.128Z,2.65
2022-07-26T05:27:35.967Z,2.33
2022-07-26T05:30:02.942Z,2.70
2022-07-26T05:32:29.504Z,5.53
2022-07-26T05:34:56.037Z,3.97
2022-07-26T05:37:22.568Z,2.92
2022-07-26T05:39:49.121Z,3.40
2022-07-26T05:42:15.634Z,4.47
2022-07-26T05:44:42.774Z,5.30
2022-07-26T05:47:10.008Z,4.97
2022-07-26T05:49:39.911Z,5.30
2022-07-26T05:52:07.551Z,4.90
2022-07-26T05:54:34.203Z,4.60
2022-07-26T05:57:00.786Z,4.07
2022-07-26T05:59:27.549Z,4.50
2022-07-26T06:01:56.535Z,3.80
2022-07-26T06:04:27.195Z,4.78
2022-07-26T06:06:55.139Z,3.35
2022-07-26T06:09:24.779Z,3.20
2022-07-26T06:11:52.113Z,2.90
2022-07-26T06:14:20.485Z,3.08
2022-07-26T06:16:47.729Z,2.83
2022-07-26T06:19:15.292Z,2.47
2022-07-26T06:21:48.039Z,2.47
2022-07-26T06:24:14.678Z,2.58
2022-07-26T06:26:41.261Z,2.60
2022-07-26T06:29:08.019Z,2.60
2022-07-26T06:31:34.916Z,2.75
2022-07-26T06:34:01.823Z,2.90
2022-07-26T06:36:30.785Z,3.00
2022-07-26T06:38:58.842Z,2.72
2022-07-26T06:41:25.882Z,2.63
2022-07-26T06:43:52.900Z,2.88
2022-07-26T06:46:21.007Z,2.72
2022-07-26T06:48:52.660Z,2.90
2022-07-26T06:51:19.870Z,2.60
2022-07-26T06:53:46.558Z,2.78
2022-07-26T06:56:14.840Z,3.00
2022-07-26T06:58:42.604Z,2.90
2022-07-26T07:01:09.424Z,3.15
2022-07-26T07:03:36.263Z,2.90
2022-07-26T07:06:03.180Z,2.72
2022-07-26T07:08:29.712Z,3.25
2022-07-26T07:10:56.680Z,3.30
2022-07-26T07:13:23.362Z,2.80
2022-07-26T07:15:50.013Z,2.85
2022-07-26T07:18:16.621Z,3.28
2022-07-26T07:20:43.131Z,3.22
2022-07-26T07:23:09.727Z,3.92
2022-07-26T07:25:36.231Z,2.83
2022-07-26T07:28:03.007Z,3.03
2022-07-26T07:30:29.671Z,3.30
2022-07-26T07:32:56.563Z,3.13
2022-07-26T07:35:23.572Z,3.53
2022-07-26T07:37:53.197Z,3.30
2022-07-26T07:40:22.684Z,2.92
2022-07-26T07:42:49.492Z,4.18
2022-07-26T07:45:16.014Z,3.67
2022-07-26T07:47:42.653Z,4.20
2022-07-26T07:50:09.335Z,4.32
2022-07-26T07:52:35.918Z,4.60
2022-07-26T07:55:28.748Z,4.18
2022-07-26T07:57:49.849Z,5.28
2022-07-26T08:00:19.155Z,4.97
2022-07-26T08:02:46.894Z,5.40
2022-07-26T08:05:15.579Z,8.13
2022-07-26T08:07:42.650Z,5.07
2022-07-26T08:10:10.101Z,6.00
2022-07-26T08:12:36.916Z,5.43
2022-07-26T08:15:07.508Z,6.53
2022-07-26T08:17:35.591Z,7.00
2022-07-26T08:20:08.937Z,7.28
2022-07-26T08:22:41.979Z,10.50
2022-07-26T08:25:09.614Z,8.50
2022-07-26T08:27:40.912Z,6.63
2022-07-26T08:30:08.926Z,7.38
2022-07-26T08:32:35.656Z,6.00
2022-07-26T08:35:17.723Z,6.40
2022-07-26T08:37:46.787Z,6.72
2022-07-26T08:40:14.029Z,6.72
2022-07-26T08:42:40.686Z,6.25
2022-07-26T08:45:08.058Z,7.38
2022-07-26T08:47:39.919Z,6.40
2022-07-26T08:50:12.851Z,6.35
2022-07-26T08:52:43.460Z,6.75
2022-07-26T08:55:15.452Z,7.00
2022-07-26T08:57:42.236Z,6.97
2022-07-26T09:00:31.855Z,6.85
2022-07-26T09:03:02.303Z,7.30
2022-07-26T09:05:33.560Z,6.55
2022-07-26T09:08:21.385Z,8.60
2022-07-26T09:10:47.943Z,6.88
2022-07-26T09:13:16.641Z,7.07
2022-07-26T09:15:43.357Z,7.07
2022-07-26T09:18:28.290Z,7.30
2022-07-26T09:20:55.534Z,8.32
2022-07-26T09:23:22.408Z,8.30
2022-07-26T09:25:49.067Z,7.68
2022-07-26T09:28:29.469Z,8.10
2022-07-26T09:31:05.074Z,7.38
2022-07-26T09:33:51.519Z,8.35
2022-07-26T09:36:19.847Z,8.27
2022-07-26T09:38:50.946Z,7.72
2022-07-26T09:41:33.911Z,7.35
2022-07-26T09:44:06.002Z,8.10
2022-07-26T09:46:35.691Z,7.85
2022-07-26T09:49:26.337Z,8.65
2022-07-26T09:51:59.299Z,8.70
2022-07-26T09:54:35.507Z,9.20
2022-07-26T09:59:30.315Z,9.30
2022-07-26T10:01:59.264Z,8.48
2022-07-26T10:04:26.694Z,8.93
2022-07-26T10:06:55.736Z,9.25
2022-07-26T10:09:23.192Z,8.80
2022-07-26T10:11:57.872Z,8.50
2022-07-26T10:14:33.314Z,7.40
2022-07-26T10:17:29.253Z,7.45
2022-07-26T10:20:19.401Z,7.20
2022-07-26T10:22:51.337Z,7.00
2022-07-26T10:25:17.778Z,7.13
2022-07-26T10:27:51.683Z,6.85
2022-07-26T10:30:18.189Z,7.55
2022-07-26T10:32:56.475Z,6.90
2022-07-26T10:35:43.168Z,6.70
2022-07-26T10:40:55.223Z,6.15
2022-07-26T10:49:05.064Z,5.20
2022-07-26T10:51:40.938Z,5.80
2022-07-26T10:54:13.907Z,5.50
2022-07-26T10:56:41.131Z,5.63
2022-07-26T10:59:08.308Z,5.45
2022-07-26T11:01:41.107Z,5.82
2022-07-26T11:04:22.442Z,6.47
2022-07-26T11:06:49.313Z,6.68
2022-07-26T11:09:18.406Z,5.95
2022-07-26T11:11:47.636Z,6.57
2022-07-26T11:14:18.021Z,5.47
2022-07-26T11:16:48.917Z,6.20
2022-07-26T11:19:19.781Z,5.47
2022-07-26T11:21:53.612Z,5.85
2022-07-26T11:24:21.924Z,4.80
2022-07-26T11:26:48.638Z,5.70
2022-07-26T11:29:17.524Z,5.47
2022-07-26T11:31:52.065Z,5.75
2022-07-26T11:34:30.843Z,4.90
2022-07-26T11:37:00.329Z,5.75
2022-07-26T11:39:31.920Z,5.75
2022-07-26T11:42:05.344Z,4.75
2022-07-26T11:44:33.243Z,4.63
2022-07-26T11:47:11.998Z,5.25
2022-07-26T11:50:00.659Z,5.43
2022-07-26T11:54:57.394Z,5.70
2022-07-26T11:57:30.669Z,5.70
2022-07-26T11:59:59.884Z,4.80
2022-07-26T12:02:28.071Z,4.53
2022-07-26T12:05:19.868Z,4.75
2022-07-26T12:08:04.001Z,4.45
2022-07-26T12:10:30.918Z,4.30
2022-07-26T12:13:15.742Z,3.63
2022-07-26T12:15:52.662Z,2.80
2022-07-26T12:18:30.814Z,3.42
2022-07-26T12:21:07.965Z,2.90
2022-07-26T12:23:54.941Z,3.38
2022-07-26T12:26:26.908Z,2.78
2022-07-26T12:28:55.542Z,3.33
2022-07-26T12:31:32.204Z,4.07
2022-07-26T12:33:59.438Z,3.30
2022-07-26T12:36:29.095Z,4.57
2022-07-26T12:39:00.956Z,3.22
2022-07-26T12:41:39.172Z,4.00
2022-07-26T12:44:09.190Z,4.68
2022-07-26T12:46:36.638Z,4.40
2022-07-26T12:49:04.507Z,4.10
2022-07-26T12:51:31.301Z,4.88
2022-07-26T12:53:58.076Z,3.60
2022-07-26T12:56:24.584Z,4.15
2022-07-26T12:58:51.164Z,3.42
2022-07-26T13:01:17.770Z,4.53
2022-07-26T13:03:44.516Z,4.03
2022-07-26T13:06:11.071Z,3.92
2022-07-26T13:08:37.655Z,4.70
2022-07-26T13:11:04.189Z,4.03
2022-07-26T13:13:30.774Z,3.67
2022-07-26T13:15:57.303Z,6.05
2022-07-26T13:18:23.839Z,3.42
2022-07-26T13:20:50.979Z,3.22
2022-07-26T13:23:21.818Z,3.13
2022-07-26T13:25:50.797Z,2.67
2022-07-26T13:28:17.582Z,3.15
2022-07-26T13:30:44.951Z,2.28
2022-07-26T13:33:11.879Z,2.33
2022-07-26T13:35:41.056Z,2.53
2022-07-26T13:38:08.460Z,2.40
2022-07-26T13:40:35.154Z,2.95
2022-07-26T13:43:02.871Z,2.28
2022-07-26T13:45:29.781Z,2.72
2022-07-26T13:47:58.859Z,2.10
2022-07-26T13:50:26.681Z,2.30
2022-07-26T13:52:56.097Z,2.70
2022-07-26T13:55:22.905Z,2.95
2022-07-26T13:57:55.677Z,2.45
2022-07-26T14:00:23.113Z,2.75
2022-07-26T14:02:49.805Z,2.53
2022-07-26T14:05:16.498Z,2.55
2022-07-26T14:07:43.474Z,2.35
2022-07-26T14:10:10.454Z,3.25
2022-07-26T14:12:38.045Z,2.80
2022-07-26T14:15:10.895Z,3.10
2022-07-26T14:17:40.173Z,2.50
2022-07-26T14:20:07.386Z,2.50
2022-07-26T14:22:34.050Z,3.42
2022-07-26T14:25:00.593Z,3.10
2022-07-26T14:27:27.178Z,2.95
2022-07-26T14:29:53.692Z,2.88
2022-07-26T14:32:22.134Z,2.80
2022-07-26T14:34:49.670Z,2.90
2022-07-26T14:37:41.656Z,2.85
2022-07-26T14:42:31.927Z,2.85
2022-07-26T14:44:58.466Z,3.25
2022-07-26T14:47:25.141Z,2.88
2022-07-26T14:49:51.718Z,3.08
2022-07-26T14:52:18.412Z,3.90
2022-07-26T14:54:44.997Z,3.53
2022-07-26T14:57:11.554Z,3.88
2022-07-26T14:59:38.158Z,3.30
2022-07-26T15:02:06.058Z,2.80
2022-07-26T15:04:32.933Z,3.47
2022-07-26T15:06:59.992Z,3.33
2022-07-26T15:09:26.691Z,6.05
2022-07-26T15:11:53.374Z,3.28
2022-07-26T15:14:20.072Z,3.60
2022-07-26T15:16:46.721Z,3.20
2022-07-26T15:19:13.505Z,3.50
2022-07-26T15:21:40.091Z,3.42
2022-07-26T15:24:07.484Z,3.60
2022-07-26T15:26:34.237Z,2.95
2022-07-26T15:29:00.801Z,2.95
2022-07-26T15:31:37.281Z,3.00
2022-07-26T15:34:07.274Z,3.25
2022-07-26T15:36:34.243Z,3.10
2022-07-26T15:39:14.683Z,2.90
2022-07-26T15:41:43.205Z,3.03
2022-07-26T15:44:11.511Z,3.60
2022-07-26T15:46:39.697Z,3.67
2022-07-26T15:49:07.600Z,3.55
2022-07-26T15:51:34.478Z,3.90
2022-07-26T15:54:03.169Z,3.50
2022-07-26T15:56:29.952Z,3.40
2022-07-26T15:58:56.635Z,3.78
2022-07-26T16:01:23.427Z,3.50
2022-07-26T16:03:50.508Z,2.85
2022-07-26T16:06:17.644Z,3.03
2022-07-26T16:09:05.889Z,3.03
2022-07-26T16:14:01.195Z,2.67
2022-07-26T16:16:32.042Z,3.03
2022-07-26T16:18:58.776Z,2.75
2022-07-26T16:21:25.663Z,2.85
2022-07-26T16:23:52.199Z,2.00
2022-07-26T16:26:19.188Z,2.47
2022-07-26T16:28:46.036Z,2.88
2022-07-26T16:31:12.660Z,3.17
2022-07-26T16:33:46.077Z,1.98
2022-07-26T16:36:12.828Z,2.28
2022-07-26T16:38:39.402Z,1.80
2022-07-26T16:41:05.949Z,2.40
2022-07-26T16:43:32.665Z,1.90
2022-07-26T16:45:59.198Z,2.38
2022-07-26T16:48:25.990Z,2.10
2022-07-26T16:50:52.723Z,2.00
2022-07-26T16:53:19.266Z,1.73
2022-07-26T16:55:47.012Z,1.85
2022-07-26T16:58:13.521Z,1.80
2022-07-26T17:00:40.218Z,2.00
2022-07-26T17:03:06.760Z,1.92
2022-07-26T17:05:33.401Z,1.92
2022-07-26T17:07:59.966Z,2.03
2022-07-26T17:10:26.551Z,1.90
2022-07-26T17:12:54.108Z,2.00
2022-07-26T17:15:20.726Z,1.67
2022-07-26T17:17:48.955Z,1.67
2022-07-26T17:20:16.215Z,1.90
2022-07-26T17:22:42.750Z,1.80
2022-07-26T17:25:09.776Z,1.88
2022-07-26T17:27:36.691Z,1.70
2022-07-26T17:30:07.098Z,1.73
2022-07-26T17:32:34.995Z,2.13
2022-07-26T17:35:01.939Z,1.40
2022-07-26T17:37:28.574Z,1.80
2022-07-26T17:39:56.533Z,1.63
2022-07-26T17:42:24.265Z,1.70
2022-07-26T17:44:51.369Z,1.60
2022-07-26T17:47:29.708Z,2.22
2022-07-26T17:50:34.734Z,2.17
2022-07-26T17:52:50.428Z,1.50
2022-07-26T17:55:18.984Z,1.88
2022-07-26T17:57:47.545Z,1.70
2022-07-26T18:00:15.146Z,1.65
2022-07-26T18:02:41.773Z,11.20
2022-07-26T18:05:08.986Z,1.75
2022-07-26T18:07:35.564Z,1.90
2022-07-26T18:10:02.220Z,4.53
2022-07-26T18:12:30.450Z,2.13
2022-07-26T18:14:57.079Z,2.78
2022-07-26T18:17:23.694Z,1.95
2022-07-26T18:19:50.446Z,2.00
2022-07-26T18:22:16.966Z,1.65
2022-07-26T18:24:43.494Z,1.77
2022-07-26T18:27:10.035Z,2.10
2022-07-26T18:29:36.584Z,1.50
2022-07-26T18:32:03.236Z,1.40
2022-07-26T18:34:29.830Z,1.60
2022-07-26T18:36:56.542Z,1.30
2022-07-26T18:39:23.131Z,1.48
2022-07-26T18:41:49.767Z,1.45
2022-07-26T18:44:16.372Z,1.50
2022-07-26T18:46:42.936Z,1.83
2022-07-26T18:49:10.085Z,2.55
2022-07-26T18:51:48.881Z,1.85
2022-07-26T18:54:16.529Z,1.77
2022-07-26T18:56:43.252Z,1.70
2022-07-26T18:59:10.399Z,1.65
2022-07-26T19:01:37.196Z,1.52
2022-07-26T19:04:06.966Z,1.60
2022-07-26T19:06:34.934Z,1.60
2022-07-26T19:09:01.798Z,1.50
2022-07-26T19:11:30.096Z,1.88
2022-07-26T19:13:56.659Z,1.52
2022-07-26T19:16:23.338Z,1.67
2022-07-26T19:18:53.823Z,1.60
2022-07-26T19:21:23.561Z,1.60
2022-07-26T19:23:50.313Z,1.58
2022-07-26T19:26:17.056Z,1.80
2022-07-26T19:28:43.659Z,2.15
2022-07-26T19:31:10.632Z,1.90
2022-07-26T19:33:37.195Z,1.98
2022-07-26T19:36:03.922Z,1.83
2022-07-26T19:38:32.903Z,1.75
2022-07-26T19:41:00.836Z,1.80
2022-07-26T19:43:27.834Z,1.60
2022-07-26T19:45:54.924Z,1.83
2022-07-26T19:48:21.540Z,1.85
2022-07-26T19:50:48.623Z,1.80
2022-07-26T19:53:15.215Z,1.50
2022-07-26T19:55:42.405Z,1.70
2022-07-26T19:58:09.261Z,1.70
2022-07-26T20:00:36.098Z,2.10
2022-07-26T20:03:02.929Z,1.90
2022-07-26T20:05:29.588Z,2.00
2022-07-26T20:07:56.488Z,1.88
2022-07-26T20:10:24.568Z,1.80
2022-07-26T20:12:53.924Z,1.90
2022-07-26T20:15:22.394Z,1.90
2022-07-26T20:17:49.165Z,1.90
2022-07-26T20:20:17.732Z,1.90
2022-07-26T20:22:44.280Z,2.10
2022-07-26T20:25:11.208Z,1.80
2022-07-26T20:27:38.124Z,1.90
2022-07-26T20:30:06.612Z,1.85
2022-07-26T20:32:33.213Z,1.70
2022-07-26T20:34:59.728Z,1.88
2022-07-26T20:37:26.321Z,1.77
2022-07-26T20:39:52.814Z,1.90
2022-07-26T20:42:21.963Z,1.83
2022-07-26T20:44:48.830Z,1.70
2022-07-26T20:47:15.443Z,1.83
2022-07-26T20:49:42.000Z,1.80
2022-07-26T20:52:08.536Z,2.10
2022-07-26T20:54:35.196Z,2.15
2022-07-26T20:57:04.341Z,1.90
2022-07-26T20:59:32.357Z,1.65
2022-07-26T21:01:59.063Z,1.70
2022-07-26T21:04:25.847Z,1.60
2022-07-26T21:06:52.421Z,1.80
2022-07-26T21:09:19.115Z,1.83
2022-07-26T21:11:45.689Z,1.60
2022-07-26T21:14:12.222Z,2.00
2022-07-26T21:16:38.979Z,2.22
2022-07-26T21:19:05.973Z,1.50
2022-07-26T21:21:34.063Z,1.77
2022-07-26T21:24:00.646Z,1.80
2022-07-26T21:26:27.156Z,1.95
2022-07-26T21:28:53.723Z,1.80
2022-07-26T21:31:20.955Z,1.52
2022-07-26T21:33:47.496Z,1.75
2022-07-26T21:36:14.290Z,1.75
2022-07-26T21:38:42.007Z,1.60
2022-07-26T21:41:08.590Z,1.80
2022-07-26T21:43:37.128Z,1.80
2022-07-26T21:46:05.725Z,1.77
2022-07-26T21:48:34.331Z,1.63
2022-07-26T21:51:00.929Z,1.90
2022-07-26T21:53:27.428Z,1.50
2022-07-26T21:55:53.951Z,1.52
2022-07-26T21:58:20.474Z,1.80
2022-07-26T22:00:47.184Z,1.83
2022-07-26T22:03:13.843Z,1.38
2022-07-26T22:05:43.477Z,1.52
2022-07-26T22:08:14.498Z,1.60
2022-07-26T22:10:45.035Z,1.40
2022-07-26T22:13:13.029Z,1.83
2022-07-26T22:15:39.895Z,1.30
2022-07-26T22:18:09.503Z,1.50
2022-07-26T22:20:36.424Z,1.98
2022-07-26T22:23:09.264Z,1.55
2022-07-26T22:25:38.138Z,1.90
2022-07-26T22:28:07.537Z,1.70
2022-07-26T22:30:34.378Z,1.80
2022-07-26T22:33:04.074Z,1.63
2022-07-26T22:35:36.257Z,1.35
2022-07-26T22:38:07.817Z,2.08
2022-07-26T22:40:35.951Z,1.40
2022-07-26T22:43:03.078Z,1.50
2022-07-26T22:45:30.822Z,1.42
2022-07-26T22:47:58.272Z,1.70
2022-07-26T22:50:25.572Z,1.60
2022-07-26T22:52:52.326Z,1.60
2022-07-26T22:55:20.133Z,1.67
2022-07-26T22:57:47.314Z,1.70
2022-07-26T23:00:17.830Z,1.83
2022-07-26T23:02:45.276Z,1.60
2022-07-26T23:05:14.329Z,1.40
2022-07-26T23:07:41.230Z,1.55
2022-07-26T23:10:11.262Z,1.60
2022-07-26T23:12:38.818Z,1.95
2022-07-26T23:15:06.516Z,1.40
2022-07-26T23:17:35.713Z,1.45
2022-07-26T23:20:07.994Z,1.52
2022-07-26T23:22:35.249Z,1.40
2022-07-26T23:25:01.796Z,1.80
2022-07-26T23:27:28.388Z,1.77
2022-07-26T23:29:55.384Z,1.55
2022-07-26T23:32:22.042Z,1.70
2022-07-26T23:34:48.642Z,1.60
2022-07-26T23:37:15.192Z,1.88
2022-07-26T23:39:41.779Z,2.00
2022-07-26T23:42:08.493Z,1.85
2022-07-26T23:44:35.017Z,2.15
2022-07-26T23:47:01.775Z,1.65
2022-07-26T23:49:28.416Z,1.90
2022-07-26T23:51:55.039Z,1.80
2022-07-26T23:54:21.609Z,2.20
2022-07-26T23:56:48.314Z,2.53
2022-07-26T23:59:15.372Z,1.70
